createdAt,value
2019-02-16T00:02:50.673Z,101097.17
2019-02-16T00:05:55.902Z,101099.73
2019-02-16T00:09:01.066Z,101097.06
2019-02-16T00:12:07.894Z,101095.67
2019-02-16T00:15:13.121Z,101099.09
2019-02-16T00:18:18.341Z,101098.70
2019-02-16T00:21:23.488Z,101090.96
2019-02-16T00:24:28.704Z,101096.53
2019-02-16T00:27:33.882Z,101089.44
2019-02-16T00:30:39.078Z,101093.89
2019-02-16T00:33:44.317Z,101101.45
2019-02-16T00:36:49.545Z,101093.26
2019-02-16T00:39:54.857Z,101087.86
2019-02-16T00:43:00.050Z,101085.14
2019-02-16T00:46:05.228Z,101086.23
2019-02-16T00:49:10.458Z,101088.13
2019-02-16T00:52:15.650Z,101095.48
2019-02-16T00:55:20.837Z,101087.48
2019-02-16T00:58:26.096Z,101085.68
2019-02-16T01:01:31.291Z,101095.24
2019-02-16T01:04:36.438Z,101086.16
2019-02-16T01:07:41.573Z,101080.13
2019-02-16T01:10:46.828Z,101080.25
2019-02-16T01:13:52.104Z,101074.58
2019-02-16T01:16:57.261Z,101079.86
2019-02-16T01:20:02.474Z,101080.05
2019-02-16T01:23:07.623Z,101068.73
2019-02-16T01:26:12.934Z,101068.30
2019-02-16T01:29:18.107Z,101065.06
2019-02-16T01:32:23.400Z,101068.38
2019-02-16T01:35:28.541Z,101068.78
2019-02-16T01:38:34.782Z,101063.22
2019-02-16T01:41:40.077Z,101068.58
2019-02-16T01:44:45.239Z,101060.50
2019-02-16T01:47:50.378Z,101056.83
2019-02-16T01:50:55.584Z,101053.06
2019-02-16T01:54:00.770Z,101050.46
2019-02-16T01:57:05.917Z,101055.38
2019-02-16T02:00:11.578Z,101054.83
2019-02-16T02:03:16.692Z,101045.99
2019-02-16T02:06:21.918Z,101050.11
2019-02-16T02:09:27.092Z,101050.15
2019-02-16T02:12:32.384Z,101046.20
2019-02-16T02:15:37.578Z,101044.59
2019-02-16T02:18:42.784Z,101051.66
2019-02-16T02:21:48.145Z,101047.71
2019-02-16T02:24:53.323Z,101051.59
2019-02-16T02:27:58.541Z,101055.30
2019-02-16T02:31:03.666Z,101048.67
2019-02-16T02:34:08.834Z,101049.03
2019-02-16T02:37:14.046Z,101035.08
2019-02-16T02:40:19.293Z,101039.04
2019-02-16T02:43:24.453Z,101040.67
2019-02-16T02:46:29.595Z,101044.80
2019-02-16T02:49:34.716Z,101037.16
2019-02-16T02:52:39.823Z,101035.84
2019-02-16T02:55:44.980Z,101036.71
2019-02-16T02:58:50.183Z,101037.44
2019-02-16T03:01:55.308Z,101032.84
2019-02-16T03:05:00.498Z,101032.95
2019-02-16T03:08:05.736Z,101031.63
2019-02-16T03:11:10.927Z,101029.49
2019-02-16T03:14:16.066Z,101024.30
2019-02-16T03:17:21.224Z,101024.59
2019-02-16T03:20:26.424Z,101025.92
2019-02-16T03:23:32.086Z,101026.59
2019-02-16T03:27:07.226Z,101027.80
2019-02-16T03:30:49.571Z,101031.84
2019-02-16T03:34:03.170Z,101031.18
2019-02-16T03:37:50.547Z,101032.70
2019-02-16T03:40:55.692Z,101029.67
2019-02-16T03:44:00.869Z,101030.06
2019-02-16T03:47:07.099Z,101035.12
2019-02-16T03:50:12.346Z,101037.41
2019-02-16T03:53:17.649Z,101034.02
2019-02-16T03:56:22.791Z,101036.08
2019-02-16T03:59:27.900Z,101034.27
2019-02-16T04:02:33.063Z,101039.45
2019-02-16T04:05:38.219Z,101038.05
2019-02-16T04:08:43.366Z,101038.89
2019-02-16T04:11:48.559Z,101034.48
2019-02-16T04:14:53.736Z,101033.44
2019-02-16T04:17:58.881Z,101024.02
2019-02-16T04:21:04.076Z,101030.33
2019-02-16T04:24:09.301Z,101025.81
2019-02-16T04:27:14.464Z,101025.34
2019-02-16T04:30:19.612Z,101027.52
2019-02-16T04:33:24.725Z,101025.81
2019-02-16T04:36:29.901Z,101024.03
2019-02-16T04:39:35.052Z,101017.91
2019-02-16T04:42:40.197Z,101017.70
2019-02-16T04:45:45.388Z,101006.14
2019-02-16T04:48:50.659Z,101008.02
2019-02-16T04:51:55.819Z,101003.78
2019-02-16T04:55:00.986Z,100998.98
2019-02-16T04:58:06.107Z,100995.78
2019-02-16T05:01:11.281Z,100993.72
2019-02-16T05:04:16.649Z,100984.20
2019-02-16T05:07:21.912Z,100986.72
2019-02-16T05:10:27.046Z,100980.33
2019-02-16T05:13:32.187Z,100980.97
2019-02-16T05:16:37.333Z,100984.93
2019-02-16T05:19:42.457Z,100984.45
2019-02-16T05:22:47.673Z,100986.64
2019-02-16T05:25:52.807Z,100982.59
2019-02-16T05:28:57.996Z,100985.43
2019-02-16T05:32:03.176Z,100994.95
2019-02-16T05:35:08.354Z,100989.67
2019-02-16T05:38:13.666Z,101000.02
2019-02-16T05:41:18.808Z,101007.66
2019-02-16T05:44:24.029Z,101012.72
2019-02-16T05:47:29.173Z,101011.89
2019-02-16T05:50:34.343Z,101013.84
2019-02-16T05:53:39.491Z,101011.58
2019-02-16T05:56:44.639Z,101025.30
2019-02-16T05:59:49.825Z,101030.36
2019-02-16T06:02:54.976Z,101024.88
2019-02-16T06:06:00.168Z,101033.32
2019-02-16T06:09:06.451Z,101033.66
2019-02-16T06:12:11.619Z,101020.71
2019-02-16T06:15:16.791Z,101020.92
2019-02-16T06:18:21.982Z,101019.09
2019-02-16T06:21:28.206Z,101017.82
2019-02-16T06:24:33.411Z,101019.14
2019-02-16T06:27:38.611Z,101024.59
2019-02-16T06:30:43.846Z,101034.52
2019-02-16T06:33:48.943Z,101029.52
2019-02-16T06:36:54.091Z,101038.37
2019-02-16T06:39:59.283Z,101034.13
2019-02-16T06:43:04.462Z,101036.80
2019-02-16T06:46:09.637Z,101035.44
2019-02-16T06:49:14.772Z,101042.12
2019-02-16T06:52:19.978Z,101038.36
2019-02-16T06:55:28.605Z,101049.41
2019-02-16T06:58:33.777Z,101052.77
2019-02-16T07:01:38.948Z,101055.58
2019-02-16T07:04:44.099Z,101047.81
2019-02-16T07:07:49.254Z,101052.73
2019-02-16T07:10:54.435Z,101055.73
2019-02-16T07:13:59.618Z,101056.98
2019-02-16T07:17:30.201Z,101052.64
2019-02-16T07:20:36.418Z,101053.58
2019-02-16T07:23:41.607Z,101053.43
2019-02-16T07:26:46.754Z,101051.23
2019-02-16T07:29:51.933Z,101043.50
2019-02-16T07:32:57.091Z,101049.92
2019-02-16T07:36:02.236Z,101038.23
2019-02-16T07:39:07.867Z,101035.16
2019-02-16T07:42:13.037Z,101040.22
2019-02-16T07:45:29.865Z,101041.84
2019-02-16T07:48:53.991Z,101044.70
2019-02-16T07:52:20.874Z,101048.31
2019-02-16T07:55:36.164Z,101045.47
2019-02-16T07:58:48.024Z,101047.88
2019-02-16T08:02:12.102Z,101046.06
2019-02-16T08:05:34.421Z,101038.47
2019-02-16T08:09:07.715Z,101046.49
2019-02-16T08:12:31.809Z,101038.75
2019-02-16T08:15:51.534Z,101044.98
2019-02-16T08:19:23.044Z,101026.77
2019-02-16T08:22:41.406Z,101029.58
2019-02-16T08:26:04.502Z,101023.24
2019-02-16T08:29:22.660Z,101026.77
2019-02-16T08:32:58.831Z,101024.78
2019-02-16T08:36:10.388Z,101023.56
2019-02-16T08:39:34.456Z,101014.59
2019-02-16T08:43:01.406Z,101024.72
2019-02-16T08:46:34.915Z,101016.39
2019-02-16T08:50:05.165Z,101023.48
2019-02-16T08:53:16.550Z,101024.69
2019-02-16T08:56:39.376Z,101018.35
2019-02-16T09:00:12.615Z,101021.05
2019-02-16T09:03:36.023Z,101020.30
2019-02-16T09:06:57.594Z,101020.28
2019-02-16T09:10:30.969Z,101014.38
2019-02-16T09:13:48.846Z,101012.70
2019-02-16T09:17:13.537Z,101008.28
2019-02-16T09:20:40.836Z,101001.33
2019-02-16T09:24:03.805Z,101000.91
2019-02-16T09:27:34.139Z,100998.24
2019-02-16T09:30:56.536Z,100994.19
2019-02-16T09:34:12.053Z,100987.03
2019-02-16T09:37:39.190Z,100993.70
2019-02-16T09:41:02.090Z,100983.36
2019-02-16T09:44:18.113Z,100982.16
2019-02-16T09:47:40.963Z,100978.28
2019-02-16T09:51:17.108Z,100975.05
2019-02-16T09:54:53.396Z,100971.78
2019-02-16T09:58:16.229Z,100970.66
2019-02-16T10:01:52.781Z,100966.22
2019-02-16T10:05:09.891Z,100973.62
2019-02-16T10:08:39.951Z,100964.94
2019-02-16T10:11:51.244Z,100964.68
2019-02-16T10:15:14.192Z,100963.45
2019-02-16T10:18:30.763Z,100960.89
2019-02-16T10:21:55.157Z,100959.55
2019-02-16T10:25:28.512Z,100956.07
2019-02-16T10:28:55.449Z,100953.91
2019-02-16T10:32:22.311Z,100951.39
2019-02-16T10:35:55.833Z,100948.14
2019-02-16T10:39:25.259Z,100947.52
2019-02-16T10:42:39.682Z,100944.49
2019-02-16T10:46:03.699Z,100945.44
2019-02-16T10:49:30.936Z,100939.78
2019-02-16T10:52:54.276Z,100940.22
2019-02-16T10:56:18.375Z,100935.53
2019-02-16T10:59:42.316Z,100934.41
2019-02-16T11:03:09.554Z,100933.23
2019-02-16T11:06:35.303Z,100931.58
2019-02-16T11:09:45.638Z,100924.47
2019-02-16T11:12:59.264Z,100911.45
2019-02-16T11:16:38.588Z,100907.80
2019-02-16T11:20:05.643Z,100907.13
2019-02-16T11:23:20.776Z,100905.30
2019-02-16T11:26:47.859Z,100904.93
2019-02-16T11:30:12.060Z,100899.25
2019-02-16T11:33:24.456Z,100896.32
2019-02-16T11:37:02.547Z,100897.98
2019-02-16T11:40:27.008Z,100884.37
2019-02-16T11:43:44.695Z,100878.55
2019-02-16T11:47:15.164Z,100882.48
2019-02-16T11:50:45.375Z,100883.68
2019-02-16T11:54:04.531Z,100880.63
2019-02-16T11:57:27.681Z,100871.88
2019-02-16T12:00:40.272Z,100874.52
2019-02-16T12:04:07.600Z,100872.49
2019-02-16T12:07:37.733Z,100866.68
2019-02-16T12:11:01.261Z,100861.57
2019-02-16T12:14:37.719Z,100857.31
2019-02-16T12:18:20.338Z,100852.92
2019-02-16T12:22:02.691Z,100857.23
2019-02-16T12:25:29.763Z,100846.75
2019-02-16T12:28:46.619Z,100837.67
2019-02-16T12:32:10.763Z,100842.91
2019-02-16T12:35:30.811Z,100831.97
2019-02-16T12:39:02.965Z,100827.02
2019-02-16T12:42:32.769Z,100821.69
2019-02-16T12:45:56.884Z,100810.63
2019-02-16T12:49:20.055Z,100810.45
2019-02-16T12:52:59.623Z,100814.10
2019-02-16T12:56:32.765Z,100807.88
2019-02-16T13:00:09.053Z,100800.41
2019-02-16T13:03:21.257Z,100800.48
2019-02-16T13:06:48.451Z,100797.92
2019-02-16T13:10:11.486Z,100801.84
2019-02-16T13:13:35.645Z,100803.58
2019-02-16T13:17:02.674Z,100794.36
2019-02-16T13:20:31.853Z,100785.78
2019-02-16T13:24:11.048Z,100784.69
2019-02-16T13:27:50.401Z,100779.86
2019-02-16T13:31:32.908Z,100774.98
2019-02-16T13:34:59.820Z,100770.83
2019-02-16T13:38:22.559Z,100773.67
2019-02-16T13:41:52.535Z,100771.43
2019-02-16T13:45:19.377Z,100769.89
2019-02-16T13:48:43.541Z,100767.06
2019-02-16T13:51:58.383Z,100760.89
2019-02-16T13:55:36.194Z,100755.86
2019-02-16T13:59:04.540Z,100752.86
2019-02-16T14:02:29.799Z,100755.37
2019-02-16T14:05:51.973Z,100752.30
2019-02-16T14:09:11.986Z,100754.47
2019-02-16T14:12:24.699Z,100747.91
2019-02-16T14:15:49.202Z,100747.16
2019-02-16T14:18:54.401Z,100747.09
2019-02-16T14:21:59.584Z,100739.03
2019-02-16T14:25:06.887Z,100729.84
2019-02-16T14:28:12.106Z,100730.73
2019-02-16T14:31:18.694Z,100730.38
2019-02-16T14:34:23.856Z,100734.20
2019-02-16T14:37:38.412Z,100730.05
2019-02-16T14:40:43.596Z,100730.53
2019-02-16T14:43:48.709Z,100730.92
2019-02-16T14:46:53.957Z,100723.76
2019-02-16T14:49:59.056Z,100724.94
2019-02-16T14:53:04.195Z,100725.28
2019-02-16T14:56:09.482Z,100726.41
2019-02-16T14:59:14.647Z,100727.00
2019-02-16T15:02:19.777Z,100735.13
2019-02-16T15:05:24.922Z,100727.03
2019-02-16T15:08:30.077Z,100717.86
2019-02-16T15:11:35.339Z,100719.35
2019-02-16T15:14:40.504Z,100713.47
2019-02-16T15:17:45.659Z,100718.99
2019-02-16T15:20:50.807Z,100714.60
2019-02-16T15:23:55.938Z,100715.37
2019-02-16T15:27:01.029Z,100714.52
2019-02-16T15:30:09.154Z,100716.27
2019-02-16T15:33:14.358Z,100710.06
2019-02-16T15:36:24.001Z,100717.91
2019-02-16T15:39:26.346Z,100715.90
2019-02-16T15:42:31.460Z,100714.55
2019-02-16T15:45:36.563Z,100705.14
2019-02-16T15:48:41.726Z,100706.84
2019-02-16T15:51:46.929Z,100707.33
2019-02-16T15:54:52.262Z,100713.32
2019-02-16T15:57:57.358Z,100704.33
2019-02-16T16:01:02.971Z,100703.72
2019-02-16T16:04:08.165Z,100706.25
2019-02-16T16:07:16.561Z,100708.82
2019-02-16T16:10:31.739Z,100701.84
2019-02-16T16:13:48.078Z,100712.36
2019-02-16T16:17:18.195Z,100713.45
2019-02-16T16:20:37.821Z,100707.97
2019-02-16T16:24:04.779Z,100710.33
2019-02-16T16:27:32.092Z,100715.04
2019-02-16T16:30:49.624Z,100713.17
2019-02-16T16:34:05.003Z,100714.66
2019-02-16T16:37:29.278Z,100718.64
2019-02-16T16:41:02.662Z,100712.30
2019-02-16T16:44:35.883Z,100702.19
2019-02-16T16:47:55.750Z,100715.61
2019-02-16T16:51:13.641Z,100716.72
2019-02-16T16:54:47.125Z,100718.93
2019-02-16T16:58:07.043Z,100713.41
2019-02-16T17:01:31.107Z,100718.89
2019-02-16T17:04:55.521Z,100721.00
2019-02-16T17:08:15.484Z,100724.66
2019-02-16T17:11:42.453Z,100728.08
2019-02-16T17:15:05.397Z,100737.05
2019-02-16T17:18:47.707Z,100733.30
2019-02-16T17:22:17.656Z,100733.91
2019-02-16T17:25:40.289Z,100734.59
2019-02-16T17:29:19.751Z,100735.44
2019-02-16T17:32:46.726Z,100729.17
2019-02-16T17:35:57.674Z,100740.32
2019-02-16T17:39:11.477Z,100736.30
2019-02-16T17:42:34.747Z,100740.41
2019-02-16T17:46:05.216Z,100759.01
2019-02-16T17:49:38.255Z,100762.01
2019-02-16T17:53:01.377Z,100765.91
2019-02-16T17:56:46.593Z,100759.63
2019-02-16T17:59:51.609Z,100760.13
2019-02-16T18:03:18.730Z,100760.53
2019-02-16T18:06:51.802Z,100761.78
2019-02-16T18:10:21.743Z,100765.16
2019-02-16T18:13:58.014Z,100765.03
2019-02-16T18:17:23.795Z,100762.41
2019-02-16T18:20:53.858Z,100762.73
2019-02-16T18:24:09.224Z,100764.45
2019-02-16T18:27:45.449Z,100761.82
2019-02-16T18:31:18.535Z,100765.41
2019-02-16T18:34:50.766Z,100764.08
2019-02-16T18:38:26.930Z,100764.69
2019-02-16T18:41:56.963Z,100758.81
2019-02-16T18:45:08.979Z,100759.81
2019-02-16T18:48:21.519Z,100752.37
2019-02-16T18:51:55.715Z,100751.39
2019-02-16T18:55:11.890Z,100752.64
2019-02-16T18:58:30.345Z,100754.42
2019-02-16T19:01:50.190Z,100751.05
2019-02-16T19:05:13.007Z,100757.64
2019-02-16T19:08:26.473Z,100755.76
2019-02-16T19:11:49.211Z,100751.79
2019-02-16T19:15:00.885Z,100752.52
2019-02-16T19:18:28.454Z,100752.17
2019-02-16T19:21:42.444Z,100753.78
2019-02-16T19:24:59.943Z,100753.28
2019-02-16T19:28:20.613Z,100751.29
2019-02-16T19:31:40.920Z,100755.87
2019-02-16T19:35:05.103Z,100753.84
2019-02-16T19:38:41.609Z,100755.05
2019-02-16T19:41:59.775Z,100748.63
2019-02-16T19:45:21.068Z,100744.01
2019-02-16T19:48:44.908Z,100743.77
2019-02-16T19:52:15.287Z,100743.59
2019-02-16T19:55:42.688Z,100743.47
2019-02-16T19:59:01.460Z,100735.95
2019-02-16T20:02:31.731Z,100743.32
2019-02-16T20:05:56.173Z,100741.08
2019-02-16T20:09:14.733Z,100744.00
2019-02-16T20:12:35.315Z,100739.19
2019-02-16T20:15:51.808Z,100743.73
2019-02-16T20:19:18.928Z,100743.73
2019-02-16T20:23:01.392Z,100746.67
2019-02-16T20:26:24.074Z,100751.17
2019-02-16T20:29:44.456Z,100754.47
2019-02-16T20:33:04.665Z,100754.22
2019-02-16T20:36:27.275Z,100756.53
2019-02-16T20:39:42.342Z,100757.27
2019-02-16T20:42:58.582Z,100755.08
2019-02-16T20:46:10.153Z,100761.15
2019-02-16T20:49:27.773Z,100761.03
2019-02-16T20:52:50.808Z,100754.78
2019-02-16T20:56:21.037Z,100762.52
2019-02-16T20:59:43.883Z,100765.69
2019-02-16T21:03:10.942Z,100762.34
2019-02-16T21:06:40.691Z,100760.78
2019-02-16T21:10:11.012Z,100759.07
2019-02-16T21:13:35.156Z,100758.96
2019-02-16T21:16:59.362Z,100752.47
2019-02-16T21:20:26.494Z,100761.72
2019-02-16T21:24:00.054Z,100761.86
2019-02-16T21:27:24.467Z,100752.97
2019-02-16T21:30:36.168Z,100754.62
2019-02-16T21:34:12.518Z,100754.78
2019-02-16T21:37:24.647Z,100751.91
2019-02-16T21:40:51.923Z,100762.95
2019-02-16T21:44:06.663Z,100764.06
2019-02-16T21:47:24.706Z,100756.34
2019-02-16T21:51:04.022Z,100749.47
2019-02-16T21:54:32.533Z,100751.12
2019-02-16T21:57:45.891Z,100752.09
2019-02-16T22:01:16.049Z,100756.27
2019-02-16T22:04:26.167Z,100758.59
2019-02-16T22:07:43.171Z,100754.16
2019-02-16T22:11:25.448Z,100756.09
2019-02-16T22:14:30.576Z,100757.31
2019-02-16T22:17:35.784Z,100761.73
2019-02-16T22:20:40.962Z,100762.11
2019-02-16T22:23:46.131Z,100756.57
2019-02-16T22:26:51.335Z,100752.22
2019-02-16T22:29:56.492Z,100753.43
2019-02-16T22:33:01.670Z,100751.60
2019-02-16T22:36:06.958Z,100756.27
2019-02-16T22:39:12.103Z,100751.55
2019-02-16T22:42:17.398Z,100748.77
2019-02-16T22:45:22.535Z,100745.30
2019-02-16T22:48:27.795Z,100748.22
2019-02-16T22:51:32.958Z,100749.44
2019-02-16T22:54:38.121Z,100755.37
2019-02-16T22:57:43.328Z,100758.17
2019-02-16T23:00:49.559Z,100753.38
2019-02-16T23:03:55.722Z,100752.14
2019-02-16T23:07:00.916Z,100762.98
2019-02-16T23:10:07.335Z,100764.41
2019-02-16T23:13:13.239Z,100761.48
2019-02-16T23:16:18.431Z,100761.64
2019-02-16T23:19:23.898Z,100753.81
2019-02-16T23:22:29.084Z,100752.78
2019-02-16T23:25:34.220Z,100751.94
2019-02-16T23:28:39.465Z,100754.08
2019-02-16T23:31:44.661Z,100750.71
2019-02-16T23:34:49.839Z,100743.98
2019-02-16T23:37:55.019Z,100745.63
2019-02-16T23:41:00.188Z,100734.88
2019-02-16T23:44:05.448Z,100736.96
2019-02-16T23:47:10.546Z,100734.42
2019-02-16T23:50:15.999Z,100730.45
2019-02-16T23:53:21.235Z,100737.47
2019-02-16T23:56:26.424Z,100738.56
2019-02-16T23:59:31.888Z,100738.84
